sensor_id;sensor_type;location;lat;lon;timestamp;pressure;altitude;pressure_sealevel;temperature;humidity
77321;BME280;66382;52.252;8.780;2023-12-28T00:00:15;99948.22;;;8.72;70.18
77321;BME280;66382;52.252;8.780;2023-12-28T00:02:41;99956.44;;;8.71;70.17
77321;BME280;66382;52.252;8.780;2023-12-28T00:05:06;99952.31;;;8.68;70.08
77321;BME280;66382;52.252;8.780;2023-12-28T00:07:32;99967.69;;;8.66;70.52
77321;BME280;66382;52.252;8.780;2023-12-28T00:09:57;99966.88;;;8.66;70.61
77321;BME280;66382;52.252;8.780;2023-12-28T00:12:23;99967.06;;;8.64;71.29
77321;BME280;66382;52.252;8.780;2023-12-28T00:14:50;99938.09;;;8.46;70.79
77321;BME280;66382;52.252;8.780;2023-12-28T00:17:15;99955.47;;;8.57;70.98
77321;BME280;66382;52.252;8.780;2023-12-28T00:19:41;99958.31;;;8.55;71.19
77321;BME280;66382;52.252;8.780;2023-12-28T00:22:06;99965.72;;;8.53;71.70
77321;BME280;66382;52.252;8.780;2023-12-28T00:24:31;99964.25;;;8.51;71.19
77321;BME280;66382;52.252;8.780;2023-12-28T00:26:57;99956.59;;;8.48;71.63
77321;BME280;66382;52.252;8.780;2023-12-28T00:29:22;99966.44;;;8.47;71.43
77321;BME280;66382;52.252;8.780;2023-12-28T00:31:49;99973.81;;;8.45;72.37
77321;BME280;66382;52.252;8.780;2023-12-28T00:34:15;99979.72;;;8.40;72.75
77321;BME280;66382;52.252;8.780;2023-12-28T00:36:40;99979.91;;;8.39;72.50
77321;BME280;66382;52.252;8.780;2023-12-28T00:39:05;99983.41;;;8.39;72.94
77321;BME280;66382;52.252;8.780;2023-12-28T00:41:31;99979.25;;;8.37;72.45
77321;BME280;66382;52.252;8.780;2023-12-28T00:43:56;99978.06;;;8.39;72.28
77321;BME280;66382;52.252;8.780;2023-12-28T00:46:22;99983.56;;;8.38;72.98
77321;BME280;66382;52.252;8.780;2023-12-28T00:48:49;99981.91;;;8.37;72.91
77321;BME280;66382;52.252;8.780;2023-12-28T00:51:14;99979.81;;;8.32;73.07
77321;BME280;66382;52.252;8.780;2023-12-28T00:53:39;99985.63;;;8.36;72.93
77321;BME280;66382;52.252;8.780;2023-12-28T00:56:05;99972.06;;;8.37;73.15
77321;BME280;66382;52.252;8.780;2023-12-28T00:58:30;99976.41;;;8.38;73.55
77321;BME280;66382;52.252;8.780;2023-12-28T01:00:56;99978.06;;;8.39;73.53
77321;BME280;66382;52.252;8.780;2023-12-28T01:03:21;99968.38;;;8.38;73.14
77321;BME280;66382;52.252;8.780;2023-12-28T01:05:49;99967.41;;;8.39;73.92
77321;BME280;66382;52.252;8.780;2023-12-28T01:08:15;99970.72;;;8.42;73.92
77321;BME280;66382;52.252;8.780;2023-12-28T01:10:40;99962.06;;;8.39;73.59
77321;BME280;66382;52.252;8.780;2023-12-28T01:13:06;99964.53;;;8.41;73.89
77321;BME280;66382;52.252;8.780;2023-12-28T01:15:31;99988.38;;;8.43;73.46
77321;BME280;66382;52.252;8.780;2023-12-28T01:17:57;99981.19;;;8.43;73.56
77321;BME280;66382;52.252;8.780;2023-12-28T01:20:22;99984.50;;;8.45;73.79
77321;BME280;66382;52.252;8.780;2023-12-28T01:22:49;99988.22;;;8.44;74.09
77321;BME280;66382;52.252;8.780;2023-12-28T01:25:14;99990.50;;;8.47;73.78
77321;BME280;66382;52.252;8.780;2023-12-28T01:27:40;100001.81;;;8.49;74.11
77321;BME280;66382;52.252;8.780;2023-12-28T01:30:06;100000.63;;;8.52;74.17
77321;BME280;66382;52.252;8.780;2023-12-28T01:32:32;99998.59;;;8.54;74.04
77321;BME280;66382;52.252;8.780;2023-12-28T01:34:57;100001.91;;;8.56;73.96
77321;BME280;66382;52.252;8.780;2023-12-28T01:37:23;100010.53;;;8.58;73.83
77321;BME280;66382;52.252;8.780;2023-12-28T01:39:50;100005.84;;;8.60;74.16
77321;BME280;66382;52.252;8.780;2023-12-28T01:42:15;100008.34;;;8.61;73.93
77321;BME280;66382;52.252;8.780;2023-12-28T01:44:40;100018.00;;;8.63;74.53
77321;BME280;66382;52.252;8.780;2023-12-28T01:47:06;100014.97;;;8.66;74.27
77321;BME280;66382;52.252;8.780;2023-12-28T01:49:32;99997.78;;;8.53;74.04
77321;BME280;66382;52.252;8.780;2023-12-28T01:51:59;100025.28;;;8.69;74.13
77321;BME280;66382;52.252;8.780;2023-12-28T01:54:26;100016.19;;;8.63;74.54
77321;BME280;66382;52.252;8.780;2023-12-28T01:56:53;100023.69;;;8.74;74.38
77321;BME280;66382;52.252;8.780;2023-12-28T01:59:19;100033.38;;;8.75;74.29
77321;BME280;66382;52.252;8.780;2023-12-28T02:01:45;100036.69;;;8.77;74.21
77321;BME280;66382;52.252;8.780;2023-12-28T02:04:10;100042.88;;;8.78;74.30
77321;BME280;66382;52.252;8.780;2023-12-28T02:06:36;100049.31;;;8.83;74.21
77321;BME280;66382;52.252;8.780;2023-12-28T02:09:01;100048.91;;;8.87;74.51
77321;BME280;66382;52.252;8.780;2023-12-28T02:11:27;100050.38;;;8.89;73.93
77321;BME280;66382;52.252;8.780;2023-12-28T02:13:54;100053.22;;;8.88;74.27
77321;BME280;66382;52.252;8.780;2023-12-28T02:16:25;100061.56;;;8.93;74.20
77321;BME280;66382;52.252;8.780;2023-12-28T02:18:52;100058.66;;;8.94;74.49
77321;BME280;66382;52.252;8.780;2023-12-28T02:21:20;100071.03;;;8.95;74.44
77321;BME280;66382;52.252;8.780;2023-12-28T02:23:46;100057.66;;;8.95;74.31
77321;BME280;66382;52.252;8.780;2023-12-28T02:26:13;100076.19;;;8.97;74.24
77321;BME280;66382;52.252;8.780;2023-12-28T02:28:39;100053.53;;;8.93;73.82
77321;BME280;66382;52.252;8.780;2023-12-28T02:31:05;100064.47;;;8.98;73.99
77321;BME280;66382;52.252;8.780;2023-12-28T02:33:38;100068.63;;;9.00;73.93
77321;BME280;66382;52.252;8.780;2023-12-28T02:36:11;100061.44;;;9.01;74.02
77321;BME280;66382;52.252;8.780;2023-12-28T02:38:38;100064.53;;;9.04;74.01
77321;BME280;66382;52.252;8.780;2023-12-28T02:41:04;100063.88;;;9.02;74.02
77321;BME280;66382;52.252;8.780;2023-12-28T02:43:31;100059.00;;;9.06;74.47
77321;BME280;66382;52.252;8.780;2023-12-28T02:45:57;100048.50;;;9.04;73.94
77321;BME280;66382;52.252;8.780;2023-12-28T02:48:22;100053.91;;;9.11;73.99
77321;BME280;66382;52.252;8.780;2023-12-28T02:50:47;100051.06;;;9.13;74.23
77321;BME280;66382;52.252;8.780;2023-12-28T02:53:13;100047.53;;;9.12;73.97
77321;BME280;66382;52.252;8.780;2023-12-28T02:55:38;100047.34;;;9.14;74.38
77321;BME280;66382;52.252;8.780;2023-12-28T02:58:04;100045.50;;;9.14;74.34
77321;BME280;66382;52.252;8.780;2023-12-28T03:00:31;100049.84;;;9.15;74.16
77321;BME280;66382;52.252;8.780;2023-12-28T03:02:56;100044.25;;;9.10;73.98
77321;BME280;66382;52.252;8.780;2023-12-28T03:05:22;100038.50;;;9.13;74.01
77321;BME280;66382;52.252;8.780;2023-12-28T03:07:47;100038.69;;;9.12;73.89
77321;BME280;66382;52.252;8.780;2023-12-28T03:10:13;100031.50;;;9.12;74.12
77321;BME280;66382;52.252;8.780;2023-12-28T03:12:38;100037.88;;;9.11;73.70
77321;BME280;66382;52.252;8.780;2023-12-28T03:15:05;100033.56;;;9.10;74.00
77321;BME280;66382;52.252;8.780;2023-12-28T03:17:32;100053.75;;;9.13;73.94
77321;BME280;66382;52.252;8.780;2023-12-28T03:19:58;100051.69;;;9.15;73.87
77321;BME280;66382;52.252;8.780;2023-12-28T03:22:24;100030.09;;;9.16;73.98
77321;BME280;66382;52.252;8.780;2023-12-28T03:24:49;100046.16;;;9.16;73.82
77321;BME280;66382;52.252;8.780;2023-12-28T03:27:14;100043.09;;;9.19;74.17
77321;BME280;66382;52.252;8.780;2023-12-28T03:29:41;100033.25;;;9.20;74.09
77321;BME280;66382;52.252;8.780;2023-12-28T03:32:06;100039.19;;;9.22;73.95
77321;BME280;66382;52.252;8.780;2023-12-28T03:34:33;100036.53;;;9.22;74.00
77321;BME280;66382;52.252;8.780;2023-12-28T03:36:58;100032.03;;;9.22;73.90
77321;BME280;66382;52.252;8.780;2023-12-28T03:39:24;100030.34;;;9.21;74.06
77321;BME280;66382;52.252;8.780;2023-12-28T03:41:49;100033.84;;;9.22;73.80
77321;BME280;66382;52.252;8.780;2023-12-28T03:44:15;100028.31;;;9.23;74.00
77321;BME280;66382;52.252;8.780;2023-12-28T03:46:40;100041.88;;;9.22;73.78
77321;BME280;66382;52.252;8.780;2023-12-28T03:49:06;100033.03;;;9.21;73.89
77321;BME280;66382;52.252;8.780;2023-12-28T03:51:33;100029.53;;;9.21;74.10
77321;BME280;66382;52.252;8.780;2023-12-28T03:53:58;100034.72;;;9.22;73.69
77321;BME280;66382;52.252;8.780;2023-12-28T03:56:25;100030.34;;;9.21;73.75
77321;BME280;66382;52.252;8.780;2023-12-28T03:58:51;100027.50;;;9.23;74.00
77321;BME280;66382;52.252;8.780;2023-12-28T04:01:18;100025.00;;;9.21;73.71
77321;BME280;66382;52.252;8.780;2023-12-28T04:03:43;100023.16;;;9.22;73.73
77321;BME280;66382;52.252;8.780;2023-12-28T04:06:09;100020.47;;;9.22;73.91
77321;BME280;66382;52.252;8.780;2023-12-28T04:08:36;100028.50;;;9.22;73.89
77321;BME280;66382;52.252;8.780;2023-12-28T04:11:01;100022.34;;;9.21;73.86
77321;BME280;66382;52.252;8.780;2023-12-28T04:13:26;100022.72;;;9.18;73.77
77321;BME280;66382;52.252;8.780;2023-12-28T04:15:52;100021.09;;;9.17;73.81
77321;BME280;66382;52.252;8.780;2023-12-28T04:18:17;99994.75;;;8.99;73.46
77321;BME280;66382;52.252;8.780;2023-12-28T04:20:43;100007.25;;;9.14;73.85
77321;BME280;66382;52.252;8.780;2023-12-28T04:23:08;100011.00;;;9.19;73.96
77321;BME280;66382;52.252;8.780;2023-12-28T04:25:35;100011.19;;;9.18;73.58
77321;BME280;66382;52.252;8.780;2023-12-28T04:28:00;100004.38;;;9.15;73.83
77321;BME280;66382;52.252;8.780;2023-12-28T04:30:26;100004.56;;;9.14;73.85
77321;BME280;66382;52.252;8.780;2023-12-28T04:32:51;100000.03;;;9.14;73.45
77321;BME280;66382;52.252;8.780;2023-12-28T04:35:17;99998.78;;;9.10;73.73
77321;BME280;66382;52.252;8.780;2023-12-28T04:37:42;100007.44;;;9.12;73.92
77321;BME280;66382;52.252;8.780;2023-12-28T04:40:09;99997.94;;;9.10;73.93
77321;BME280;66382;52.252;8.780;2023-12-28T04:42:35;100005.41;;;9.14;73.98
77321;BME280;66382;52.252;8.780;2023-12-28T04:45:01;100011.56;;;9.15;73.81
77321;BME280;66382;52.252;8.780;2023-12-28T04:47:26;100022.72;;;9.18;73.86
77321;BME280;66382;52.252;8.780;2023-12-28T04:49:52;100018.84;;;9.21;74.07
77321;BME280;66382;52.252;8.780;2023-12-28T04:52:17;100009.78;;;9.22;73.92
77321;BME280;66382;52.252;8.780;2023-12-28T04:54:43;100009.59;;;9.23;73.79
77321;BME280;66382;52.252;8.780;2023-12-28T04:57:08;100020.94;;;9.25;73.83
77321;BME280;66382;52.252;8.780;2023-12-28T04:59:39;100012.91;;;9.25;73.88
77321;BME280;66382;52.252;8.780;2023-12-28T05:02:04;100012.47;;;9.22;73.76
77321;BME280;66382;52.252;8.780;2023-12-28T05:04:29;100021.75;;;9.26;73.71
77321;BME280;66382;52.252;8.780;2023-12-28T05:06:55;100028.97;;;9.25;73.63
77321;BME280;66382;52.252;8.780;2023-12-28T05:09:20;100028.16;;;9.25;73.53
77321;BME280;66382;52.252;8.780;2023-12-28T05:11:46;100040.47;;;9.26;73.71
77321;BME280;66382;52.252;8.780;2023-12-28T05:14:11;100043.16;;;9.26;73.96
77321;BME280;66382;52.252;8.780;2023-12-28T05:16:38;100061.72;;;9.28;74.13
77321;BME280;66382;52.252;8.780;2023-12-28T05:19:03;100055.78;;;9.32;74.00
77321;BME280;66382;52.252;8.780;2023-12-28T05:21:29;100054.38;;;9.36;73.76
77321;BME280;66382;52.252;8.780;2023-12-28T05:23:54;100059.53;;;9.38;73.99
77321;BME280;66382;52.252;8.780;2023-12-28T05:26:20;100051.69;;;9.36;74.24
77321;BME280;66382;52.252;8.780;2023-12-28T05:28:45;100049.66;;;9.38;73.73
77321;BME280;66382;52.252;8.780;2023-12-28T05:31:11;100044.06;;;9.33;73.78
77321;BME280;66382;52.252;8.780;2023-12-28T05:33:37;100066.75;;;9.37;73.68
77321;BME280;66382;52.252;8.780;2023-12-28T05:36:03;100059.06;;;9.34;73.79
77321;BME280;66382;52.252;8.780;2023-12-28T05:38:29;100054.19;;;9.38;73.78
77321;BME280;66382;52.252;8.780;2023-12-28T05:40:54;100045.13;;;9.39;73.93
77321;BME280;66382;52.252;8.780;2023-12-28T05:43:20;100048.19;;;9.36;73.96
77321;BME280;66382;52.252;8.780;2023-12-28T05:45:45;100046.34;;;9.36;73.71
77321;BME280;66382;52.252;8.780;2023-12-28T05:48:11;100057.03;;;9.36;73.80
77321;BME280;66382;52.252;8.780;2023-12-28T05:50:37;100056.66;;;9.39;73.53
77321;BME280;66382;52.252;8.780;2023-12-28T05:53:03;100065.88;;;9.37;73.57
77321;BME280;66382;52.252;8.780;2023-12-28T05:55:29;100059.72;;;9.36;73.72
77321;BME280;66382;52.252;8.780;2023-12-28T05:57:54;100056.22;;;9.36;73.54
77321;BME280;66382;52.252;8.780;2023-12-28T06:00:20;100068.56;;;9.37;73.63
77321;BME280;66382;52.252;8.780;2023-12-28T06:02:45;100079.09;;;9.38;73.66
77321;BME280;66382;52.252;8.780;2023-12-28T06:05:11;100070.88;;;9.40;73.55
77321;BME280;66382;52.252;8.780;2023-12-28T06:07:37;100066.34;;;9.40;74.04
77321;BME280;66382;52.252;8.780;2023-12-28T06:10:04;100071.50;;;9.42;73.77
77321;BME280;66382;52.252;8.780;2023-12-28T06:12:29;100074.16;;;9.42;73.57
77321;BME280;66382;52.252;8.780;2023-12-28T06:14:55;100086.53;;;9.43;73.59
77321;BME280;66382;52.252;8.780;2023-12-28T06:17:20;100075.63;;;9.44;73.59
77321;BME280;66382;52.252;8.780;2023-12-28T06:19:45;100089.66;;;9.46;73.83
77321;BME280;66382;52.252;8.780;2023-12-28T06:22:11;100089.47;;;9.48;73.58
77321;BME280;66382;52.252;8.780;2023-12-28T06:24:39;100074.44;;;9.47;73.56
77321;BME280;66382;52.252;8.780;2023-12-28T06:27:04;100070.28;;;9.44;73.37
77321;BME280;66382;52.252;8.780;2023-12-28T06:29:30;100075.06;;;9.49;73.49
77321;BME280;66382;52.252;8.780;2023-12-28T06:31:55;100076.09;;;9.48;73.43
77321;BME280;66382;52.252;8.780;2023-12-28T06:34:20;100068.88;;;9.48;73.32
77321;BME280;66382;52.252;8.780;2023-12-28T06:36:46;100073.25;;;9.50;73.23
77321;BME280;66382;52.252;8.780;2023-12-28T06:39:11;100074.88;;;9.51;73.33
77321;BME280;66382;52.252;8.780;2023-12-28T06:41:38;100068.72;;;9.50;73.26
77321;BME280;66382;52.252;8.780;2023-12-28T06:44:04;100074.88;;;9.51;73.47
77321;BME280;66382;52.252;8.780;2023-12-28T06:46:29;100080.22;;;9.51;73.25
77321;BME280;66382;52.252;8.780;2023-12-28T06:48:55;100065.97;;;9.43;73.20
77321;BME280;66382;52.252;8.780;2023-12-28T06:51:21;100083.56;;;9.53;72.98
77321;BME280;66382;52.252;8.780;2023-12-28T06:53:46;100080.88;;;9.53;73.25
77321;BME280;66382;52.252;8.780;2023-12-28T06:56:12;100084.38;;;9.53;73.13
77321;BME280;66382;52.252;8.780;2023-12-28T06:58:39;100083.56;;;9.53;73.55
77321;BME280;66382;52.252;8.780;2023-12-28T07:01:04;100088.06;;;9.52;73.46
77321;BME280;66382;52.252;8.780;2023-12-28T07:03:30;100086.41;;;9.51;73.21
77321;BME280;66382;52.252;8.780;2023-12-28T07:05:56;100093.22;;;9.54;73.19
77321;BME280;66382;52.252;8.780;2023-12-28T07:08:21;100091.75;;;9.51;72.92
77321;BME280;66382;52.252;8.780;2023-12-28T07:10:46;100094.25;;;9.53;73.04
77321;BME280;66382;52.252;8.780;2023-12-28T07:13:12;100094.66;;;9.50;73.21
77321;BME280;66382;52.252;8.780;2023-12-28T07:15:39;100083.56;;;9.53;73.38
77321;BME280;66382;52.252;8.780;2023-12-28T07:18:04;100087.22;;;9.52;73.07
77321;BME280;66382;52.252;8.780;2023-12-28T07:20:30;100095.06;;;9.53;73.00
77321;BME280;66382;52.252;8.780;2023-12-28T07:22:55;100098.97;;;9.51;73.69
77321;BME280;66382;52.252;8.780;2023-12-28T07:25:21;100094.03;;;9.54;72.97
77321;BME280;66382;52.252;8.780;2023-12-28T07:27:46;100094.91;;;9.55;72.93
77321;BME280;66382;52.252;8.780;2023-12-28T07:30:12;100109.91;;;9.56;73.23
77321;BME280;66382;52.252;8.780;2023-12-28T07:32:39;100103.75;;;9.55;73.21
77321;BME280;66382;52.252;8.780;2023-12-28T07:35:05;100109.09;;;9.55;73.08
77321;BME280;66382;52.252;8.780;2023-12-28T07:37:30;100105.38;;;9.56;73.01
77321;BME280;66382;52.252;8.780;2023-12-28T07:39:56;100108.28;;;9.55;73.13
77321;BME280;66382;52.252;8.780;2023-12-28T07:42:21;100108.72;;;9.58;72.68
77321;BME280;66382;52.252;8.780;2023-12-28T07:44:47;100112.19;;;9.59;73.03
77321;BME280;66382;52.252;8.780;2023-12-28T07:47:13;100110.94;;;9.55;72.94
77321;BME280;66382;52.252;8.780;2023-12-28T07:49:40;100111.38;;;9.58;72.74
77321;BME280;66382;52.252;8.780;2023-12-28T07:52:05;100112.97;;;9.53;72.54
77321;BME280;66382;52.252;8.780;2023-12-28T07:54:31;100119.22;;;9.60;73.16
77321;BME280;66382;52.252;8.780;2023-12-28T07:56:56;100111.19;;;9.60;72.66
77321;BME280;66382;52.252;8.780;2023-12-28T07:59:21;100113.03;;;9.59;72.41
77321;BME280;66382;52.252;8.780;2023-12-28T08:01:47;100116.09;;;9.56;72.64
77321;BME280;66382;52.252;8.780;2023-12-28T08:04:12;100131.19;;;9.64;72.65
77321;BME280;66382;52.252;8.780;2023-12-28T08:06:39;100142.53;;;9.66;72.54
77321;BME280;66382;52.252;8.780;2023-12-28T08:09:05;100130.84;;;9.67;73.09
77321;BME280;66382;52.252;8.780;2023-12-28T08:11:30;100134.31;;;9.67;72.75
77321;BME280;66382;52.252;8.780;2023-12-28T08:13:56;100127.31;;;9.66;72.49
77321;BME280;66382;52.252;8.780;2023-12-28T08:16:21;100150.56;;;9.66;72.65
77321;BME280;66382;52.252;8.780;2023-12-28T08:18:47;100147.91;;;9.66;72.33
77321;BME280;66382;52.252;8.780;2023-12-28T08:21:12;100147.72;;;9.67;72.52
77321;BME280;66382;52.252;8.780;2023-12-28T08:23:39;100150.38;;;9.67;72.51
77321;BME280;66382;52.252;8.780;2023-12-28T08:26:05;100145.44;;;9.64;72.52
77321;BME280;66382;52.252;8.780;2023-12-28T08:28:30;100154.53;;;9.70;72.26
77321;BME280;66382;52.252;8.780;2023-12-28T08:30:56;100150.81;;;9.71;72.48
77321;BME280;66382;52.252;8.780;2023-12-28T08:33:21;100147.31;;;9.71;72.64
77321;BME280;66382;52.252;8.780;2023-12-28T08:35:47;100153.31;;;9.73;72.02
77321;BME280;66382;52.252;8.780;2023-12-28T08:38:12;100145.28;;;9.73;71.88
77321;BME280;66382;52.252;8.780;2023-12-28T08:40:39;100153.97;;;9.75;72.47
77321;BME280;66382;52.252;8.780;2023-12-28T08:43:05;100164.66;;;9.75;72.34
77321;BME280;66382;52.252;8.780;2023-12-28T08:45:30;100158.28;;;9.76;72.63
77321;BME280;66382;52.252;8.780;2023-12-28T08:47:56;100145.94;;;9.75;72.07
77321;BME280;66382;52.252;8.780;2023-12-28T08:50:21;100147.00;;;9.80;72.04
77321;BME280;66382;52.252;8.780;2023-12-28T08:52:47;100156.69;;;9.81;72.60
77321;BME280;66382;52.252;8.780;2023-12-28T08:55:12;100141.22;;;9.77;72.09
77321;BME280;66382;52.252;8.780;2023-12-28T08:57:39;100134.44;;;9.81;72.14
77321;BME280;66382;52.252;8.780;2023-12-28T09:00:06;100141.97;;;9.92;72.05
77321;BME280;66382;52.252;8.780;2023-12-28T09:02:31;100150.44;;;9.96;72.20
77321;BME280;66382;52.252;8.780;2023-12-28T09:04:57;100151.25;;;9.96;72.55
77321;BME280;66382;52.252;8.780;2023-12-28T09:07:23;100152.91;;;9.97;72.07
77321;BME280;66382;52.252;8.780;2023-12-28T09:09:48;100153.75;;;9.98;72.00
77321;BME280;66382;52.252;8.780;2023-12-28T09:12:14;100157.47;;;9.97;72.17
77321;BME280;66382;52.252;8.780;2023-12-28T09:14:41;100167.31;;;9.96;72.09
77321;BME280;66382;52.252;8.780;2023-12-28T09:17:06;100169.16;;;9.96;71.61
77321;BME280;66382;52.252;8.780;2023-12-28T09:19:31;100164.22;;;9.93;71.17
77321;BME280;66382;52.252;8.780;2023-12-28T09:21:57;100173.53;;;9.97;71.86
77321;BME280;66382;52.252;8.780;2023-12-28T09:24:22;100175.09;;;9.91;72.02
77321;BME280;66382;52.252;8.780;2023-12-28T09:26:48;100179.88;;;9.96;71.85
77321;BME280;66382;52.252;8.780;2023-12-28T09:29:13;100176.63;;;10.00;72.03
77321;BME280;66382;52.252;8.780;2023-12-28T09:31:40;100173.56;;;10.03;71.74
77321;BME280;66382;52.252;8.780;2023-12-28T09:34:06;100182.41;;;10.04;71.70
77321;BME280;66382;52.252;8.780;2023-12-28T09:36:31;100173.38;;;10.05;72.25
77321;BME280;66382;52.252;8.780;2023-12-28T09:38:57;100171.53;;;10.05;72.42
77321;BME280;66382;52.252;8.780;2023-12-28T09:41:26;100183.28;;;10.04;72.02
77321;BME280;66382;52.252;8.780;2023-12-28T09:43:54;100172.16;;;10.07;71.70
77321;BME280;66382;52.252;8.780;2023-12-28T09:46:19;100174.03;;;10.07;72.25
77321;BME280;66382;52.252;8.780;2023-12-28T09:48:46;100167.84;;;10.06;71.60
77321;BME280;66382;52.252;8.780;2023-12-28T09:51:12;100168.19;;;10.03;70.97
77321;BME280;66382;52.252;8.780;2023-12-28T09:53:37;100161.25;;;10.09;71.57
77321;BME280;66382;52.252;8.780;2023-12-28T09:56:04;100154.69;;;10.11;71.47
77321;BME280;66382;52.252;8.780;2023-12-28T09:58:30;100153.66;;;10.12;71.77
77321;BME280;66382;52.252;8.780;2023-12-28T10:00:57;100163.41;;;10.20;71.61
77321;BME280;66382;52.252;8.780;2023-12-28T10:03:22;100155.19;;;10.22;71.40
77321;BME280;66382;52.252;8.780;2023-12-28T10:05:49;100155.94;;;10.37;71.10
77321;BME280;66382;52.252;8.780;2023-12-28T10:08:15;100161.94;;;10.39;71.01
77321;BME280;66382;52.252;8.780;2023-12-28T10:10:41;100160.47;;;10.37;70.78
77321;BME280;66382;52.252;8.780;2023-12-28T10:13:07;100154.47;;;10.35;70.68
77321;BME280;66382;52.252;8.780;2023-12-28T10:15:32;100159.84;;;10.35;71.33
77321;BME280;66382;52.252;8.780;2023-12-28T10:17:57;100162.31;;;10.36;70.90
77321;BME280;66382;52.252;8.780;2023-12-28T10:20:26;100149.13;;;10.35;71.67
77321;BME280;66382;52.252;8.780;2023-12-28T10:22:53;100141.78;;;10.22;70.57
77321;BME280;66382;52.252;8.780;2023-12-28T10:25:18;100166.13;;;10.27;71.14
77321;BME280;66382;52.252;8.780;2023-12-28T10:27:44;100166.13;;;10.27;71.14
77321;BME280;66382;52.252;8.780;2023-12-28T10:30:10;100174.19;;;10.27;71.76
77321;BME280;66382;52.252;8.780;2023-12-28T10:32:35;100166.13;;;10.27;71.83
77321;BME280;66382;52.252;8.780;2023-12-28T10:35:01;100171.69;;;10.25;70.49
77321;BME280;66382;52.252;8.780;2023-12-28T10:37:27;100178.34;;;10.29;71.51
77321;BME280;66382;52.252;8.780;2023-12-28T10:39:54;100176.50;;;10.30;70.41
77321;BME280;66382;52.252;8.780;2023-12-28T10:42:28;100162.19;;;10.23;71.19
77321;BME280;66382;52.252;8.780;2023-12-28T10:44:55;100188.03;;;10.30;70.60
77321;BME280;66382;52.252;8.780;2023-12-28T10:47:25;100181.03;;;10.29;70.91
77321;BME280;66382;52.252;8.780;2023-12-28T10:49:55;100184.72;;;10.28;70.40
77321;BME280;66382;52.252;8.780;2023-12-28T10:52:25;100168.63;;;10.28;71.56
77321;BME280;66382;52.252;8.780;2023-12-28T10:55:00;100186.94;;;10.25;71.46
77321;BME280;66382;52.252;8.780;2023-12-28T10:57:29;100182.97;;;10.21;70.65
77321;BME280;66382;52.252;8.780;2023-12-28T11:00:04;100185.47;;;10.22;71.72
77321;BME280;66382;52.252;8.780;2023-12-28T11:02:38;100174.75;;;10.22;71.41
77321;BME280;66382;52.252;8.780;2023-12-28T11:05:04;100173.53;;;10.25;71.27
77321;BME280;66382;52.252;8.780;2023-12-28T11:07:31;100162.00;;;10.24;71.09
77321;BME280;66382;52.252;8.780;2023-12-28T11:10:00;100167.34;;;10.24;70.58
77321;BME280;66382;52.252;8.780;2023-12-28T11:12:26;100163.84;;;10.24;70.90
77321;BME280;66382;52.252;8.780;2023-12-28T11:14:54;100163.00;;;10.23;70.71
77321;BME280;66382;52.252;8.780;2023-12-28T11:17:20;100169.00;;;10.25;71.47
77321;BME280;66382;52.252;8.780;2023-12-28T11:19:48;100168.00;;;10.26;70.24
77321;BME280;66382;52.252;8.780;2023-12-28T11:22:15;100169.50;;;10.29;70.76
77321;BME280;66382;52.252;8.780;2023-12-28T11:24:40;100164.75;;;10.31;71.10
77321;BME280;66382;52.252;8.780;2023-12-28T11:27:07;100164.56;;;10.32;71.45
77321;BME280;66382;52.252;8.780;2023-12-28T11:29:33;100150.97;;;10.34;70.71
77321;BME280;66382;52.252;8.780;2023-12-28T11:31:59;100145.78;;;10.32;71.51
77321;BME280;66382;52.252;8.780;2023-12-28T11:34:25;100157.81;;;10.43;70.22
77321;BME280;66382;52.252;8.780;2023-12-28T11:36:52;100160.31;;;10.45;70.27
77321;BME280;66382;52.252;8.780;2023-12-28T11:39:24;100158.28;;;10.47;70.92
77321;BME280;66382;52.252;8.780;2023-12-28T11:41:59;100151.69;;;10.49;71.12
77321;BME280;66382;52.252;8.780;2023-12-28T11:44:27;100146.97;;;10.51;69.89
77321;BME280;66382;52.252;8.780;2023-12-28T11:46:52;100140.78;;;10.51;70.63
77321;BME280;66382;52.252;8.780;2023-12-28T11:49:25;100138.69;;;10.53;70.73
77321;BME280;66382;52.252;8.780;2023-12-28T11:51:54;100144.06;;;10.53;70.71
77321;BME280;66382;52.252;8.780;2023-12-28T11:54:20;100142.84;;;10.55;70.03
77321;BME280;66382;52.252;8.780;2023-12-28T11:56:46;100145.56;;;10.62;70.58
77321;BME280;66382;52.252;8.780;2023-12-28T11:59:11;100146.03;;;10.66;69.72
77321;BME280;66382;52.252;8.780;2023-12-28T12:01:38;100150.16;;;10.68;70.04
77321;BME280;66382;52.252;8.780;2023-12-28T12:04:06;100149.53;;;10.73;69.96
77321;BME280;66382;52.252;8.780;2023-12-28T12:06:32;100145.03;;;10.73;71.00
77321;BME280;66382;52.252;8.780;2023-12-28T12:08:57;100144.19;;;10.73;70.72
77321;BME280;66382;52.252;8.780;2023-12-28T12:11:23;100133.66;;;10.71;70.44
77321;BME280;66382;52.252;8.780;2023-12-28T12:13:50;100140.03;;;10.70;69.72
77321;BME280;66382;52.252;8.780;2023-12-28T12:16:16;100129.31;;;10.70;70.17
77321;BME280;66382;52.252;8.780;2023-12-28T12:18:43;100131.19;;;10.70;69.23
77321;BME280;66382;52.252;8.780;2023-12-28T12:21:08;100127.50;;;10.71;69.98
77321;BME280;66382;52.252;8.780;2023-12-28T12:23:34;100128.72;;;10.68;69.84
77321;BME280;66382;52.252;8.780;2023-12-28T12:25:59;100122.13;;;10.71;70.53
77321;BME280;66382;52.252;8.780;2023-12-28T12:28:25;100129.13;;;10.72;70.38
77321;BME280;66382;52.252;8.780;2023-12-28T12:30:52;100126.44;;;10.72;69.80
77321;BME280;66382;52.252;8.780;2023-12-28T12:33:18;100136.13;;;10.73;70.78
77321;BME280;66382;52.252;8.780;2023-12-28T12:35:45;100129.13;;;10.72;70.54
77321;BME280;66382;52.252;8.780;2023-12-28T12:38:11;100122.13;;;10.71;69.59
77321;BME280;66382;52.252;8.780;2023-12-28T12:40:36;100120.03;;;10.73;69.84
77321;BME280;66382;52.252;8.780;2023-12-28T12:43:02;100103.13;;;10.72;69.27
77321;BME280;66382;52.252;8.780;2023-12-28T12:45:28;100107.09;;;10.76;69.53
77321;BME280;66382;52.252;8.780;2023-12-28T12:47:53;100108.94;;;10.76;68.77
77321;BME280;66382;52.252;8.780;2023-12-28T12:50:19;100104.41;;;10.76;69.60
77321;BME280;66382;52.252;8.780;2023-12-28T12:52:46;100101.72;;;10.76;69.25